Terminal Aerodrome Forecast
Issued by NWS Omaha/Valley, NE

Home | Current Version | Previous Version | Text Only | Print | Product List | Glossary On
Versions: 1 2 3 4 5 6 7 8 9 10 11 12 13 14 15 16 17 18 19 20 21 22 23 24 25 26 27 28 29 30 31 32 33
000
FTUS43 KOAX 290520
TAFOMA
TAF
KOMA 290520Z 2906/3006 16008KT P6SM BKN090
     FM291000 15007KT P6SM -SHRA OVC040
      TEMPO 2912/2915 5SM -TSRA BR OVC025CB
     FM291600 22010KT P6SM BKN040
     FM292100 32014KT P6SM -SHRA OVC040
     FM300200 24011KT P6SM BKN050=

USA.gov is the U.S. government's official web portal to all federal, state and local government web resources and services.